createdAt,value
2017-04-13T00:00:51.154Z,992.81
2017-04-13T00:02:01.175Z,992.82
2017-04-13T00:03:10.568Z,992.78
2017-04-13T00:04:20.914Z,992.76
2017-04-13T00:05:31.258Z,992.72
2017-04-13T00:06:40.980Z,992.71
2017-04-13T00:07:51.317Z,992.71
2017-04-13T00:09:01.645Z,992.65
2017-04-13T00:10:11.966Z,992.66
2017-04-13T00:11:22.303Z,992.66
2017-04-13T00:12:32.674Z,992.65
2017-04-13T00:13:42.693Z,992.62
2017-04-13T00:14:53.023Z,992.58
2017-04-13T00:16:03.354Z,992.56
2017-04-13T00:17:13.694Z,992.5
2017-04-13T00:18:23.769Z,992.52
2017-04-13T00:19:34.100Z,992.48
2017-04-13T00:20:44.124Z,992.45
2017-04-13T00:21:54.459Z,992.44
2017-04-13T00:23:04.515Z,992.48
2017-04-13T00:24:14.546Z,992.47
2017-04-13T00:25:24.893Z,992.53
2017-04-13T00:26:35.228Z,992.49
2017-04-13T00:27:44.939Z,992.49
2017-04-13T00:28:55.288Z,992.49
2017-04-13T00:30:05.402Z,992.52
2017-04-13T00:31:15.426Z,992.45
2017-04-13T00:32:25.472Z,992.43
2017-04-13T00:33:35.544Z,992.45
2017-04-13T00:34:45.563Z,992.41
2017-04-13T00:35:55.288Z,992.44
2017-04-13T00:37:05.294Z,992.42
2017-04-13T00:38:15.321Z,992.38
2017-04-13T00:39:25.671Z,992.33
2017-04-13T00:40:36.043Z,992.26
2017-04-13T00:41:46.387Z,992.24
2017-04-13T00:42:56.099Z,992.22
2017-04-13T00:44:06.441Z,992.18
2017-04-13T00:45:16.776Z,992.17
2017-04-13T00:46:27.119Z,992.12
2017-04-13T00:47:37.146Z,992.04
2017-04-13T00:48:47.172Z,991.99
2017-04-13T00:49:57.244Z,991.98
2017-04-13T00:51:07.291Z,992.01
2017-04-13T00:52:17.642Z,991.98
2017-04-13T00:53:27.664Z,991.95
2017-04-13T00:54:37.700Z,991.96
2017-04-13T00:55:47.719Z,991.94
2017-04-13T00:56:57.737Z,991.96
2017-04-13T00:58:07.766Z,991.9
2017-04-13T00:59:18.153Z,991.86
2017-04-13T01:00:27.860Z,991.8
2017-04-13T01:01:37.895Z,991.82
2017-04-13T01:02:48.247Z,991.81
2017-04-13T01:03:58.280Z,991.86
2017-04-13T01:05:08.307Z,991.84
2017-04-13T01:06:18.629Z,991.81
2017-04-13T01:07:28.649Z,991.81
2017-04-13T01:08:38.997Z,991.81
2017-04-13T01:09:49.028Z,991.86
2017-04-13T01:10:59.374Z,991.85
2017-04-13T01:12:09.403Z,991.84
2017-04-13T01:13:19.735Z,991.82
2017-04-13T01:14:30.085Z,991.81
2017-04-13T01:15:40.107Z,991.81
2017-04-13T01:16:50.463Z,991.84
2017-04-13T01:18:00.175Z,991.86
2017-04-13T01:19:10.186Z,991.86
2017-04-13T01:20:19.894Z,991.85
2017-04-13T01:21:30.255Z,991.85
2017-04-13T01:22:40.643Z,991.85
2017-04-13T01:23:51.002Z,991.85
2017-04-13T01:25:01.330Z,991.85
2017-04-13T01:26:11.664Z,991.82
2017-04-13T01:27:21.995Z,991.89
2017-04-13T01:28:32.040Z,991.81
2017-04-13T01:29:42.392Z,991.79
2017-04-13T01:30:52.414Z,991.85
2017-04-13T01:32:02.436Z,991.84
2017-04-13T01:33:12.764Z,991.83
2017-04-13T01:34:23.158Z,991.83
2017-04-13T01:35:33.495Z,991.81
2017-04-13T01:36:43.529Z,991.82
2017-04-13T01:37:53.865Z,991.83
2017-04-13T01:39:04.206Z,991.79
2017-04-13T01:40:14.536Z,991.77
2017-04-13T01:41:24.875Z,991.78
2017-04-13T01:42:35.207Z,991.73
2017-04-13T01:43:45.557Z,991.68
2017-04-13T01:44:55.895Z,991.62
2017-04-13T01:46:06.227Z,991.64
2017-04-13T01:47:16.563Z,991.68
2017-04-13T01:48:26.278Z,991.68
2017-04-13T01:49:36.616Z,991.68
2017-04-13T01:50:46.962Z,991.6
2017-04-13T01:51:57.281Z,991.54
2017-04-13T01:53:06.998Z,991.57
2017-04-13T01:54:17.325Z,991.6
2017-04-13T01:55:27.350Z,991.56
2017-04-13T01:56:37.678Z,991.54
2017-04-13T01:57:48.055Z,991.53
2017-04-13T01:58:58.091Z,991.52
2017-04-13T02:00:08.418Z,991.44
2017-04-13T02:01:17.824Z,991.45
2017-04-13T02:02:27.526Z,991.41
2017-04-13T02:03:37.553Z,991.41
2017-04-13T02:04:47.885Z,991.32
2017-04-13T02:05:58.221Z,991.32
2017-04-13T02:07:08.546Z,991.31
2017-04-13T02:08:18.583Z,991.31
2017-04-13T02:09:28.620Z,991.29
2017-04-13T02:10:38.971Z,991.29
2017-04-13T02:11:48.679Z,991.27
2017-04-13T02:12:58.713Z,991.26
2017-04-13T02:14:09.078Z,991.26
2017-04-13T02:15:19.115Z,991.26
2017-04-13T02:16:29.446Z,991.19
2017-04-13T02:17:39.486Z,991.21
2017-04-13T02:18:49.844Z,991.2
2017-04-13T02:20:00.180Z,991.24
2017-04-13T02:21:10.196Z,991.23
2017-04-13T02:22:20.512Z,991.24
2017-04-13T02:23:30.521Z,991.24
2017-04-13T02:24:40.540Z,991.23
2017-04-13T02:25:50.871Z,991.19
2017-04-13T02:27:01.236Z,991.18
2017-04-13T02:28:11.255Z,991.15
2017-04-13T02:29:21.594Z,991.17
2017-04-13T02:30:31.612Z,991.16
2017-04-13T02:31:41.324Z,991.16
2017-04-13T02:32:51.659Z,991.15
2017-04-13T02:34:01.997Z,991.15
2017-04-13T02:35:12.333Z,991.12
2017-04-13T02:36:22.680Z,991.1
2017-04-13T02:37:33.013Z,991.12
2017-04-13T02:38:43.335Z,991.11
2017-04-13T02:39:53.663Z,991.16
2017-04-13T02:41:04.006Z,991.17
2017-04-13T02:42:14.369Z,991.15
2017-04-13T02:43:24.402Z,991.17
2017-04-13T02:44:34.472Z,991.19
2017-04-13T02:45:44.499Z,991.2
2017-04-13T02:46:54.822Z,991.22
2017-04-13T02:48:04.530Z,991.25
2017-04-13T02:49:14.556Z,991.25
2017-04-13T02:50:24.301Z,991.3
2017-04-13T02:51:34.638Z,991.31
2017-04-13T02:52:44.970Z,991.39
2017-04-13T02:53:55.296Z,991.38
2017-04-13T02:55:05.015Z,991.36
2017-04-13T02:56:15.342Z,991.34
2017-04-13T02:57:25.372Z,991.35
2017-04-13T02:58:35.394Z,991.3
2017-04-13T02:59:45.730Z,991.24
2017-04-13T03:00:56.086Z,991.23
2017-04-13T03:32:57.467Z,991.04
2017-04-13T03:34:07.481Z,991.03
2017-04-13T03:35:17.820Z,991.02
2017-04-13T03:36:28.141Z,991.01
2017-04-13T03:37:38.166Z,991.03
2017-04-13T03:38:48.562Z,991.03
2017-04-13T03:39:58.584Z,991.06
2017-04-13T03:41:08.922Z,990.99
2017-04-13T03:42:19.288Z,991.02
2017-04-13T03:43:29.312Z,991.03
2017-04-13T03:44:39.648Z,991.04
2017-04-13T03:45:49.672Z,991.08
2017-04-13T03:47:00.010Z,991.11
2017-04-13T03:48:10.016Z,991.15
2017-04-13T03:49:20.347Z,991.17
2017-04-13T03:50:30.684Z,991.17
2017-04-13T03:51:40.403Z,991.12
2017-04-13T03:52:50.746Z,991.14
2017-04-13T03:54:01.065Z,991.14
2017-04-13T03:55:11.087Z,991.18
2017-04-13T03:56:21.414Z,991.22
2017-04-13T03:57:31.742Z,991.21
2017-04-13T03:58:42.078Z,991.24
2017-04-13T03:59:52.109Z,991.24
2017-04-13T04:01:02.146Z,991.22
2017-04-13T04:02:12.165Z,991.23
2017-04-13T04:03:22.187Z,991.24
2017-04-13T04:04:32.207Z,991.26
2017-04-13T04:05:42.552Z,991.28
2017-04-13T04:06:52.573Z,991.28
2017-04-13T04:08:02.287Z,991.28
2017-04-13T04:09:12.336Z,991.26
2017-04-13T04:10:22.684Z,991.24
2017-04-13T04:11:33.015Z,991.26
2017-04-13T04:12:43.037Z,991.26
2017-04-13T04:13:52.795Z,991.22
2017-04-13T04:15:03.126Z,991.23
2017-04-13T04:16:13.460Z,991.21
2017-04-13T04:17:23.790Z,991.23
2017-04-13T04:18:33.871Z,991.23
2017-04-13T04:19:44.203Z,991.2
2017-04-13T04:20:54.524Z,991.18
2017-04-13T04:22:04.547Z,991.22
2017-04-13T04:23:14.919Z,991.17
2017-04-13T04:24:25.277Z,991.18
2017-04-13T04:25:35.611Z,991.1
2017-04-13T04:26:45.944Z,991.15
2017-04-13T04:27:55.979Z,991.12
2017-04-13T04:29:05.993Z,991.17
2017-04-13T04:30:16.360Z,991.2
2017-04-13T04:31:26.684Z,991.25
2017-04-13T04:32:37.046Z,991.28
2017-04-13T04:33:47.370Z,991.18
2017-04-13T04:34:57.699Z,991.27
2017-04-13T04:36:08.036Z,991.26
2017-04-13T04:37:18.364Z,991.3
2017-04-13T04:38:28.706Z,991.25
2017-04-13T04:39:38.725Z,991.3
2017-04-13T04:40:48.765Z,991.3
2017-04-13T04:41:58.796Z,991.32
2017-04-13T04:43:08.518Z,991.31
2017-04-13T04:44:18.848Z,991.27
2017-04-13T04:45:29.192Z,991.29
2017-04-13T04:46:39.517Z,991.27
2017-04-13T04:47:49.863Z,991.3
2017-04-13T04:49:00.207Z,991.3
2017-04-13T04:50:10.544Z,991.3
2017-04-13T04:51:20.894Z,991.3
2017-04-13T04:52:30.928Z,991.29
2017-04-13T04:53:41.321Z,991.29
2017-04-13T04:54:51.659Z,991.36
2017-04-13T04:56:01.694Z,991.35
2017-04-13T04:57:12.027Z,991.34
2017-04-13T04:58:22.385Z,991.37
2017-04-13T04:59:32.413Z,991.43
2017-04-13T05:00:42.437Z,991.44
2017-04-13T05:01:52.774Z,991.39
2017-04-13T05:03:03.092Z,991.4
2017-04-13T05:04:13.437Z,991.37
2017-04-13T05:05:23.790Z,991.38
2017-04-13T05:06:34.062Z,991.39
2017-04-13T05:07:44.044Z,991.41
2017-04-13T05:08:54.085Z,991.46
2017-04-13T05:10:04.107Z,991.51
2017-04-13T05:11:14.450Z,991.51
2017-04-13T05:12:24.793Z,991.51
2017-04-13T05:13:35.136Z,991.5
2017-04-13T05:14:45.453Z,991.52
2017-04-13T05:15:55.791Z,991.56
2017-04-13T05:17:05.847Z,991.59
2017-04-13T05:18:15.868Z,991.63
2017-04-13T05:19:25.892Z,991.61
2017-04-13T05:20:35.931Z,991.59
2017-04-13T05:21:46.265Z,991.61
2017-04-13T05:22:56.301Z,991.58
2017-04-13T05:24:06.320Z,991.57
2017-04-13T05:25:16.680Z,991.57
2017-04-13T05:26:26.391Z,991.57
2017-04-13T05:27:36.720Z,991.56
2017-04-13T05:28:46.736Z,991.57
2017-04-13T05:29:56.756Z,991.57
2017-04-13T05:31:07.103Z,991.6
2017-04-13T05:32:17.140Z,991.63
2017-04-13T05:33:27.491Z,991.57
2017-04-13T05:34:37.817Z,991.61
2017-04-13T05:35:47.837Z,991.65
2017-04-13T05:36:58.178Z,991.69
2017-04-13T05:38:08.513Z,991.69
2017-04-13T05:39:18.849Z,991.71
2017-04-13T05:40:29.182Z,991.67
2017-04-13T05:41:39.198Z,991.66
2017-04-13T05:42:49.230Z,991.68
2017-04-13T05:43:59.561Z,991.68
2017-04-13T05:45:09.898Z,991.63
2017-04-13T05:46:19.930Z,991.7
2017-04-13T05:47:30.312Z,991.69
2017-04-13T05:48:40.651Z,991.69
2017-04-13T05:49:51.094Z,991.74
2017-04-13T05:51:01.106Z,991.76
2017-04-13T05:52:11.128Z,991.74
2017-04-13T05:53:21.470Z,991.74
2017-04-13T05:54:31.804Z,991.72
2017-04-13T05:55:42.184Z,991.69
2017-04-13T05:56:52.240Z,991.72
2017-04-13T05:58:02.579Z,991.7
2017-04-13T06:04:34.705Z,991.81
2017-04-13T06:05:45.048Z,991.84
2017-04-13T06:06:55.075Z,991.85
2017-04-13T06:08:05.101Z,991.84
2017-04-13T06:09:15.439Z,991.93
2017-04-13T06:10:25.782Z,991.9
2017-04-13T06:11:35.817Z,991.89
2017-04-13T06:12:46.149Z,991.9
2017-04-13T06:13:56.491Z,991.98
2017-04-13T06:15:06.514Z,991.97
2017-04-13T06:16:16.544Z,992.01
2017-04-13T06:17:26.260Z,991.93
2017-04-13T06:18:36.280Z,991.89
2017-04-13T06:19:46.292Z,991.9
2017-04-13T06:20:56.622Z,991.89
2017-04-13T06:22:06.956Z,991.89
2017-04-13T06:23:16.970Z,991.9
2017-04-13T06:24:26.987Z,991.91
2017-04-13T06:25:37.003Z,991.91
2017-04-13T06:26:46.704Z,991.91
2017-04-13T06:27:56.727Z,991.87
2017-04-13T06:29:06.439Z,991.79
2017-04-13T06:30:16.765Z,991.89
2017-04-13T06:31:27.126Z,991.88
2017-04-13T06:32:37.158Z,991.85
2017-04-13T06:33:47.474Z,991.88
2017-04-13T06:34:57.843Z,991.89
2017-04-13T06:36:07.848Z,991.92
2017-04-13T06:37:18.171Z,991.9
2017-04-13T06:38:28.517Z,991.97
2017-04-13T06:39:38.871Z,992
2017-04-13T06:40:48.891Z,991.98
2017-04-13T06:41:59.247Z,992
2017-04-13T06:43:09.582Z,992.01
2017-04-13T06:44:19.924Z,992.05
2017-04-13T06:45:30.267Z,992.03
2017-04-13T06:46:40.583Z,992.06
2017-04-13T06:47:50.599Z,992.07
2017-04-13T06:49:00.924Z,992.03
2017-04-13T06:50:10.324Z,992.03
2017-04-13T06:51:20.354Z,992.08
2017-04-13T06:52:30.721Z,992.05
2017-04-13T06:53:40.742Z,992.06
2017-04-13T06:54:51.076Z,992.1
2017-04-13T06:56:00.788Z,992.11
2017-04-13T06:57:11.120Z,992.13
2017-04-13T06:58:21.463Z,992.17
2017-04-13T06:59:30.854Z,992.22
2017-04-13T07:00:40.892Z,992.23
2017-04-13T07:01:50.608Z,992.26
2017-04-13T07:03:00.931Z,992.23
2017-04-13T07:04:10.983Z,992.23
2017-04-13T07:05:20.997Z,992.27
2017-04-13T07:06:31.340Z,992.28
2017-04-13T07:07:41.354Z,992.25
2017-04-13T07:08:51.736Z,992.3
2017-04-13T07:10:02.073Z,992.29
2017-04-13T07:11:12.142Z,992.29
2017-04-13T07:12:22.175Z,992.3
2017-04-13T07:13:32.511Z,992.31
2017-04-13T07:14:42.844Z,992.27
2017-04-13T07:15:53.191Z,992.29
2017-04-13T07:17:03.214Z,992.3
2017-04-13T07:18:12.610Z,992.34
2017-04-13T07:19:22.326Z,992.32
2017-04-13T07:20:32.098Z,992.38
2017-04-13T07:21:42.425Z,992.35
2017-04-13T07:22:52.448Z,992.35
2017-04-13T07:24:02.784Z,992.39
2017-04-13T07:25:13.115Z,992.4
2017-04-13T07:26:23.381Z,992.4
2017-04-13T07:27:33.409Z,992.42
2017-04-13T07:28:43.481Z,992.46
2017-04-13T07:29:53.803Z,992.43
2017-04-13T07:31:03.826Z,992.46
2017-04-13T07:32:14.214Z,992.43
2017-04-13T07:33:24.550Z,992.46
2017-04-13T07:34:34.301Z,992.47
2017-04-13T07:35:44.024Z,992.5
2017-04-13T07:36:54.386Z,992.55
2017-04-13T07:38:04.755Z,992.48
2017-04-13T07:39:15.097Z,992.51
2017-04-13T07:40:24.522Z,992.49
2017-04-13T07:41:34.859Z,992.54
2017-04-13T07:42:45.205Z,992.59
2017-04-13T07:43:55.223Z,992.53
2017-04-13T07:45:05.565Z,992.58
2017-04-13T07:46:15.594Z,992.58
2017-04-13T07:47:25.612Z,992.57
2017-04-13T07:48:35.963Z,992.63
2017-04-13T07:49:46.300Z,992.6
2017-04-13T07:50:56.638Z,992.57
2017-04-13T07:52:06.662Z,992.59
2017-04-13T07:53:17.035Z,992.6
2017-04-13T07:54:27.369Z,992.63
2017-04-13T07:55:37.409Z,992.61
2017-04-13T07:56:47.734Z,992.62
2017-04-13T07:57:57.751Z,992.63
2017-04-13T07:59:08.092Z,992.69
2017-04-13T08:00:18.427Z,992.69
2017-04-13T08:01:28.758Z,992.7
2017-04-13T08:02:39.096Z,992.77
2017-04-13T08:03:49.448Z,992.8
2017-04-13T08:04:59.775Z,992.77
2017-04-13T08:06:10.120Z,992.81
2017-04-13T08:07:20.465Z,992.84
2017-04-13T08:08:30.798Z,992.86
2017-04-13T08:09:41.131Z,992.8
2017-04-13T08:10:51.159Z,992.82
2017-04-13T08:12:01.207Z,992.86
2017-04-13T08:13:11.259Z,992.88
2017-04-13T08:14:21.590Z,992.88
2017-04-13T08:15:31.610Z,992.89
2017-04-13T08:16:41.939Z,992.84
2017-04-13T08:17:51.654Z,992.89
2017-04-13T08:19:01.740Z,992.88
2017-04-13T08:20:12.092Z,992.93
2017-04-13T08:21:22.404Z,992.94
2017-04-13T08:22:32.733Z,992.92
2017-04-13T08:23:43.077Z,992.93
2017-04-13T08:24:52.802Z,992.89
2017-04-13T08:26:03.148Z,992.92
2017-04-13T08:27:13.182Z,992.89
2017-04-13T08:28:23.514Z,992.94
2017-04-13T08:29:33.855Z,992.91
2017-04-13T08:30:44.215Z,992.94
2017-04-13T08:31:54.558Z,992.92
2017-04-13T08:33:04.936Z,992.92
2017-04-13T08:34:14.964Z,992.96
2017-04-13T08:35:25.290Z,992.97
2017-04-13T08:36:35.621Z,993
2017-04-13T08:37:45.944Z,992.99
2017-04-13T08:38:55.964Z,993
2017-04-13T08:40:06.295Z,993.02
2017-04-13T08:41:16.006Z,993
2017-04-13T08:42:26.346Z,993.04
2017-04-13T08:43:36.715Z,993.05
2017-04-13T08:44:47.043Z,993.1
2017-04-13T08:45:57.368Z,993.08
2017-04-13T08:47:07.716Z,993.03
2017-04-13T08:48:18.044Z,993.01
2017-04-13T08:49:28.365Z,993.11
2017-04-13T08:50:38.693Z,993.05
2017-04-13T08:51:48.409Z,993.06
2017-04-13T08:52:58.125Z,993.05
2017-04-13T08:54:08.146Z,993.06
2017-04-13T08:55:18.508Z,993.1
2017-04-13T08:56:28.850Z,993.11
2017-04-13T08:57:39.181Z,993.15
2017-04-13T08:58:49.216Z,993.09
2017-04-13T08:59:59.565Z,993.09
2017-04-13T09:01:09.908Z,993.09
2017-04-13T09:02:19.919Z,993.04
2017-04-13T09:03:29.633Z,993.1
2017-04-13T09:04:39.976Z,993.08
2017-04-13T09:05:49.702Z,993.09
2017-04-13T09:06:59.729Z,993.07
2017-04-13T09:08:10.086Z,993.08
2017-04-13T09:09:19.800Z,993.08
2017-04-13T09:10:29.820Z,993.05
2017-04-13T09:11:40.157Z,993.07
2017-04-13T09:12:50.542Z,993.07
2017-04-13T09:14:00.560Z,993.08
2017-04-13T09:15:09.996Z,993.07
2017-04-13T09:16:20.028Z,993.14
2017-04-13T09:17:30.042Z,993.1
2017-04-13T09:18:40.069Z,993.09
2017-04-13T09:19:50.099Z,993.14
2017-04-13T09:20:59.807Z,993.12
2017-04-13T09:22:10.158Z,993.12
2017-04-13T09:23:20.500Z,993.12
2017-04-13T09:24:30.828Z,993.14
2017-04-13T09:25:40.862Z,993.19
2017-04-13T09:26:51.234Z,993.17
2017-04-13T09:28:01.585Z,993.23
2017-04-13T09:29:11.925Z,993.19
2017-04-13T09:30:21.959Z,993.23
2017-04-13T09:31:32.283Z,993.23
2017-04-13T09:32:42.608Z,993.25
2017-04-13T09:33:52.935Z,993.3
2017-04-13T09:35:02.966Z,993.32
2017-04-13T09:36:13.308Z,993.36
2017-04-13T09:37:23.644Z,993.36
2017-04-13T09:38:33.967Z,993.45
2017-04-13T09:39:44.289Z,993.48
2017-04-13T09:40:54.304Z,993.48
2017-04-13T09:42:04.654Z,993.48
2017-04-13T09:43:14.999Z,993.45
2017-04-13T09:44:25.340Z,993.45
2017-04-13T09:45:35.688Z,993.39
2017-04-13T09:46:46.031Z,993.42
2017-04-13T09:47:56.374Z,993.39
2017-04-13T09:49:06.705Z,993.44
2017-04-13T09:50:17.034Z,993.38
2017-04-13T09:51:27.047Z,993.45
2017-04-13T09:52:37.378Z,993.36
2017-04-13T09:53:47.715Z,993.34
2017-04-13T09:54:58.045Z,993.33
2017-04-13T09:56:08.378Z,993.39
2017-04-13T09:57:18.716Z,993.53
2017-04-13T09:58:29.043Z,993.53
2017-04-13T09:59:39.383Z,993.48
2017-04-13T10:00:49.417Z,993.41
2017-04-13T10:01:59.444Z,993.36
2017-04-13T10:03:09.778Z,993.3
2017-04-13T10:04:20.100Z,993.3
2017-04-13T10:05:30.421Z,993.32
2017-04-13T10:06:40.773Z,993.4
2017-04-13T10:07:51.121Z,993.48
2017-04-13T10:09:00.826Z,993.5
2017-04-13T10:10:11.156Z,993.52
2017-04-13T10:11:21.488Z,993.52
2017-04-13T10:12:31.823Z,993.54
2017-04-13T10:13:42.166Z,993.46
2017-04-13T10:14:52.506Z,993.52
2017-04-13T10:16:02.257Z,993.5
2017-04-13T10:17:11.969Z,993.46
2017-04-13T10:18:22.307Z,993.47
2017-04-13T10:19:32.342Z,993.41
2017-04-13T10:20:42.386Z,993.39
2017-04-13T10:21:52.722Z,993.48
2017-04-13T10:23:03.073Z,993.43
2017-04-13T10:24:13.400Z,993.38
2017-04-13T10:25:23.123Z,993.41
2017-04-13T10:26:33.454Z,993.42
2017-04-13T10:27:43.783Z,993.4
2017-04-13T10:28:54.125Z,993.44
2017-04-13T10:30:04.468Z,993.48
2017-04-13T10:31:14.484Z,993.4
2017-04-13T10:32:24.518Z,993.41
2017-04-13T10:33:34.562Z,993.43
2017-04-13T10:34:44.905Z,993.46
2017-04-13T10:35:55.237Z,993.49
2017-04-13T10:37:05.273Z,993.47
2017-04-13T10:38:15.610Z,993.44
2017-04-13T10:39:25.971Z,993.39
2017-04-13T10:40:36.021Z,993.38
2017-04-13T10:41:46.352Z,993.32
2017-04-13T10:42:56.687Z,993.34
2017-04-13T10:44:06.395Z,993.32
2017-04-13T10:45:16.417Z,993.27
2017-04-13T10:46:26.443Z,993.32
2017-04-13T10:47:36.786Z,993.32
2017-04-13T10:48:46.805Z,993.26
2017-04-13T10:49:56.824Z,993.32
2017-04-13T10:51:06.856Z,993.39
2017-04-13T10:52:17.185Z,993.45
2017-04-13T10:53:27.198Z,993.52
2017-04-13T10:54:37.520Z,993.46
2017-04-13T10:55:47.856Z,993.44
2017-04-13T10:56:57.576Z,993.37
2017-04-13T10:58:07.904Z,993.38
2017-04-13T10:59:17.602Z,993.44
2017-04-13T11:00:27.947Z,993.45
2017-04-13T11:01:37.975Z,993.5
2017-04-13T11:02:48.010Z,993.47
2017-04-13T11:03:58.343Z,993.47
2017-04-13T11:05:08.360Z,993.5
2017-04-13T11:06:18.698Z,993.46
2017-04-13T11:07:29.042Z,993.52
2017-04-13T11:08:40.367Z,993.49
2017-04-13T11:09:50.717Z,993.45
2017-04-13T11:11:00.740Z,993.35
2017-04-13T11:12:11.071Z,993.34
2017-04-13T11:13:21.408Z,993.25
2017-04-13T11:14:31.434Z,993.22
2017-04-13T11:15:41.466Z,993.18
2017-04-13T11:16:51.503Z,993.16
2017-04-13T11:18:01.220Z,993.13
2017-04-13T11:19:11.559Z,993.19
2017-04-13T11:20:21.631Z,993.25
2017-04-13T11:21:31.969Z,993.25
2017-04-13T11:22:42.006Z,993.25
2017-04-13T11:23:51.708Z,993.26
2017-04-13T11:25:01.102Z,993.39
2017-04-13T11:26:11.127Z,993.4
2017-04-13T11:27:20.846Z,993.46
2017-04-13T11:28:31.203Z,993.49
2017-04-13T11:29:41.551Z,993.48
2017-04-13T11:30:51.584Z,993.34
2017-04-13T11:32:01.932Z,993.43
2017-04-13T11:33:11.962Z,993.34
2017-04-13T11:34:22.310Z,993.23
2017-04-13T11:35:32.324Z,993.32
2017-04-13T11:36:42.653Z,993.35
2017-04-13T11:37:52.674Z,993.39
2017-04-13T11:39:02.704Z,993.42
2017-04-13T11:40:12.415Z,993.47
2017-04-13T11:41:22.119Z,993.4
2017-04-13T11:42:31.855Z,993.42
2017-04-13T11:43:42.185Z,993.4
2017-04-13T11:44:52.526Z,993.45
2017-04-13T11:46:02.549Z,993.43
2017-04-13T11:47:12.906Z,993.44
2017-04-13T11:48:23.255Z,993.44
2017-04-13T11:49:33.635Z,993.4
2017-04-13T11:50:43.986Z,993.38
2017-04-13T11:51:54.314Z,993.38
2017-04-13T11:53:04.029Z,993.35
2017-04-13T11:54:14.371Z,993.4
2017-04-13T11:55:24.714Z,993.39
2017-04-13T11:56:35.042Z,993.43
2017-04-13T11:57:45.065Z,993.44
2017-04-13T11:58:55.083Z,993.48
2017-04-13T12:00:05.411Z,993.41
2017-04-13T12:01:15.809Z,993.48
2017-04-13T12:02:26.150Z,993.36
2017-04-13T12:03:36.176Z,993.33
2017-04-13T12:04:46.216Z,993.3
2017-04-13T12:05:56.555Z,993.27
2017-04-13T12:07:06.783Z,993.33
2017-04-13T12:08:16.494Z,993.28
2017-04-13T12:09:26.526Z,993.22
2017-04-13T12:10:36.557Z,993.25
2017-04-13T12:11:46.584Z,993.23
2017-04-13T12:12:56.604Z,993.23
2017-04-13T12:14:06.633Z,993.17
2017-04-13T12:15:16.644Z,993.19
2017-04-13T12:16:26.055Z,993.22
2017-04-13T12:17:36.401Z,993.19
2017-04-13T12:18:46.713Z,993.16
2017-04-13T12:19:57.091Z,993.2
2017-04-13T12:21:07.143Z,993.15
2017-04-13T12:22:17.484Z,993.11
2017-04-13T12:23:27.515Z,993.04
2017-04-13T12:24:37.842Z,992.93
2017-04-13T12:25:48.186Z,992.9
2017-04-13T12:26:58.531Z,992.86
2017-04-13T12:28:08.561Z,992.91
2017-04-13T12:29:18.895Z,992.93
2017-04-13T12:30:29.220Z,992.94
2017-04-13T12:31:39.562Z,992.95
2017-04-13T12:32:49.901Z,992.92
2017-04-13T12:34:00.241Z,992.86
2017-04-13T12:35:10.577Z,992.87
2017-04-13T12:36:20.899Z,992.92
2017-04-13T12:37:31.237Z,992.98
2017-04-13T12:38:41.599Z,993
2017-04-13T12:39:51.946Z,993.03
2017-04-13T12:41:01.973Z,993.05
2017-04-13T12:42:12.319Z,993.06
2017-04-13T12:43:22.355Z,993.1
2017-04-13T12:44:32.056Z,992.98
2017-04-13T12:45:42.088Z,992.97
2017-04-13T12:46:52.433Z,993.05
2017-04-13T12:48:02.810Z,993.11
2017-04-13T12:49:13.148Z,993.15
2017-04-13T12:50:23.475Z,993.19
2017-04-13T12:51:33.825Z,993.21
2017-04-13T12:52:43.854Z,993.17
2017-04-13T12:53:53.575Z,993.17
2017-04-13T12:55:03.902Z,993.05
2017-04-13T12:56:14.247Z,993.07
2017-04-13T12:57:24.589Z,993.09
2017-04-13T12:58:34.619Z,993.08
2017-04-13T12:59:44.639Z,993.13
2017-04-13T13:00:54.976Z,993.16
2017-04-13T13:02:06.441Z,993.23
2017-04-13T13:03:16.804Z,993.29
2017-04-13T13:04:27.234Z,993.29
2017-04-13T13:05:37.569Z,993.19
2017-04-13T13:06:47.903Z,993.26
2017-04-13T13:07:57.934Z,993.31
2017-04-13T13:09:08.282Z,993.26
2017-04-13T13:10:18.625Z,993.26
2017-04-13T13:11:28.953Z,993.31
2017-04-13T13:12:39.294Z,993.26
2017-04-13T13:13:49.635Z,993.29
2017-04-13T13:14:59.983Z,993.27
2017-04-13T13:16:10.017Z,993.15
2017-04-13T13:17:20.359Z,993.16
2017-04-13T13:18:30.695Z,993.19
2017-04-13T13:19:41.028Z,993.16
2017-04-13T13:20:50.765Z,993.23
2017-04-13T13:22:00.792Z,993.51
2017-04-13T13:23:11.130Z,993.63
2017-04-13T13:24:21.474Z,993.63
2017-04-13T13:25:31.818Z,993.91
2017-04-13T13:26:42.163Z,993.93
2017-04-13T13:27:52.504Z,993.89
2017-04-13T13:29:02.828Z,993.94
2017-04-13T13:30:12.865Z,994
2017-04-13T13:31:22.572Z,993.86
2017-04-13T13:32:32.927Z,994.05
2017-04-13T13:33:42.999Z,993.92
2017-04-13T13:34:53.031Z,993.97
2017-04-13T13:36:03.363Z,993.96
2017-04-13T13:37:13.714Z,993.99
2017-04-13T13:38:24.080Z,993.93
2017-04-13T13:39:34.076Z,994.01
2017-04-13T13:40:43.790Z,994.13
2017-04-13T13:41:54.146Z,994.18
2017-04-13T13:43:03.866Z,994.2
2017-04-13T13:44:13.884Z,994.18
2017-04-13T13:45:24.227Z,994.13
2017-04-13T13:46:34.247Z,994.19
2017-04-13T13:47:44.268Z,994.21
2017-04-13T13:48:54.593Z,994.26
2017-04-13T13:50:04.612Z,994.28
2017-04-13T13:51:14.957Z,994.24
2017-04-13T13:52:25.290Z,994.29
2017-04-13T13:53:35.853Z,994.35
2017-04-13T13:54:45.571Z,994.34
2017-04-13T13:55:55.894Z,994.4
2017-04-13T13:57:05.922Z,994.49
2017-04-13T13:58:16.264Z,994.45
2017-04-13T13:59:26.605Z,994.47
2017-04-13T14:00:36.943Z,994.53
2017-04-13T14:01:47.302Z,994.42
2017-04-13T14:02:57.351Z,994.36
2017-04-13T14:04:07.378Z,994.34
2017-04-13T14:05:17.715Z,994.37
2017-04-13T14:06:27.743Z,994.39
2017-04-13T14:07:37.799Z,994.4
2017-04-13T14:08:47.854Z,994.47
2017-04-13T14:09:57.873Z,994.46
2017-04-13T14:11:08.203Z,994.41
2017-04-13T14:12:18.546Z,994.38
2017-04-13T14:13:28.897Z,994.42
2017-04-13T14:14:39.247Z,994.33
2017-04-13T14:15:49.591Z,994.33
2017-04-13T14:16:59.920Z,994.37
2017-04-13T14:18:10.265Z,994.32
2017-04-13T14:19:20.602Z,994.34
2017-04-13T14:20:30.664Z,994.27
2017-04-13T14:21:41.011Z,994.3
2017-04-13T14:22:51.036Z,994.35
2017-04-13T14:24:01.377Z,994.32
2017-04-13T14:25:11.710Z,994.33
2017-04-13T14:26:21.734Z,994.28
2017-04-13T14:27:31.458Z,994.34
2017-04-13T14:28:41.804Z,994.41
2017-04-13T14:29:52.157Z,994.38
2017-04-13T14:31:02.255Z,994.42
2017-04-13T14:32:12.605Z,994.3
2017-04-13T14:33:22.966Z,994.34
2017-04-13T14:34:33.299Z,994.47
2017-04-13T14:35:43.635Z,994.32
2017-04-13T14:36:53.972Z,994.44
2017-04-13T14:38:04.008Z,994.39
2017-04-13T14:39:14.035Z,994.41
2017-04-13T14:40:24.076Z,994.47
2017-04-13T14:41:34.444Z,994.38
2017-04-13T14:42:44.470Z,994.35
2017-04-13T14:43:54.506Z,994.42
2017-04-13T14:45:04.863Z,994.52
2017-04-13T14:46:15.225Z,994.5
2017-04-13T14:47:25.580Z,994.43
2017-04-13T14:48:35.606Z,994.47
2017-04-13T14:49:45.950Z,994.4
2017-04-13T14:50:55.969Z,994.43
2017-04-13T14:52:06.000Z,994.51
2017-04-13T14:53:16.363Z,994.38
2017-04-13T14:54:26.423Z,994.34
2017-04-13T14:55:36.502Z,994.38
2017-04-13T14:56:46.851Z,994.33
2017-04-13T14:57:56.899Z,994.35
2017-04-13T14:59:07.264Z,994.38
2017-04-13T15:00:17.300Z,994.33
2017-04-13T15:01:27.632Z,994.32
2017-04-13T15:02:37.962Z,994.36
2017-04-13T15:03:48.313Z,994.34
2017-04-13T15:04:58.055Z,994.4
2017-04-13T15:06:08.095Z,994.35
2017-04-13T15:07:18.449Z,994.35
2017-04-13T15:08:28.804Z,994.27
2017-04-13T15:09:39.179Z,994.42
2017-04-13T15:10:48.901Z,994.46
2017-04-13T15:11:59.278Z,994.48
2017-04-13T15:13:09.630Z,994.47
2017-04-13T15:14:19.969Z,994.5
2017-04-13T15:15:30.311Z,994.44